sensor_id;sensor_type;location;lat;lon;timestamp;pressure;altitude;pressure_sealevel;temperature;humidity
78584;BME280;67880;46.082;18.234;2023-04-06T00:00:25;99803.84;;;3.89;43.14
78584;BME280;67880;46.082;18.234;2023-04-06T00:00:56;99806.72;;;3.86;42.29
78584;BME280;67880;46.082;18.234;2023-04-06T00:01:27;99806.50;;;3.89;42.84
78584;BME280;67880;46.082;18.234;2023-04-06T00:01:57;99803.13;;;3.87;42.61
78584;BME280;67880;46.082;18.234;2023-04-06T00:02:28;99797.56;;;3.90;42.96
78584;BME280;67880;46.082;18.234;2023-04-06T00:02:58;99808.06;;;3.91;43.28
78584;BME280;67880;46.082;18.234;2023-04-06T00:03:29;99800.22;;;3.90;42.42
78584;BME280;67880;46.082;18.234;2023-04-06T00:04:00;99799.25;;;3.91;42.43
78584;BME280;67880;46.082;18.234;2023-04-06T00:04:31;99801.78;;;3.81;42.73
78584;BME280;67880;46.082;18.234;2023-04-06T00:05:01;99803.22;;;3.85;42.28
78584;BME280;67880;46.082;18.234;2023-04-06T00:05:32;99798.75;;;3.86;42.88
78584;BME280;67880;46.082;18.234;2023-04-06T00:06:03;99794.06;;;3.89;42.98
78584;BME280;67880;46.082;18.234;2023-04-06T00:06:34;99793.34;;;3.87;42.22
78584;BME280;67880;46.082;18.234;2023-04-06T00:07:04;99792.59;;;3.85;42.94
78584;BME280;67880;46.082;18.234;2023-04-06T00:07:35;99795.03;;;3.88;42.40
78584;BME280;67880;46.082;18.234;2023-04-06T00:08:06;99800.22;;;3.90;42.30
78584;BME280;67880;46.082;18.234;2023-04-06T00:08:49;99798.53;;;3.89;42.74
78584;BME280;67880;46.082;18.234;2023-04-06T00:09:20;99795.03;;;3.88;42.76
78584;BME280;67880;46.082;18.234;2023-04-06T00:09:51;99796.72;;;3.89;42.74
78584;BME280;67880;46.082;18.234;2023-04-06T00:10:21;99802.88;;;3.90;42.37
78584;BME280;67880;46.082;18.234;2023-04-06T00:10:52;99796.94;;;3.86;42.20
78584;BME280;67880;46.082;18.234;2023-04-06T00:11:22;99795.03;;;3.88;42.84
78584;BME280;67880;46.082;18.234;2023-04-06T00:11:53;99806.63;;;3.87;42.52
78584;BME280;67880;46.082;18.234;2023-04-06T00:12:24;99798.75;;;3.86;42.49
78584;BME280;67880;46.082;18.234;2023-04-06T00:12:55;99796.34;;;3.83;42.90
78584;BME280;67880;46.082;18.234;2023-04-06T00:13:27;99792.59;;;3.85;42.39
78584;BME280;67880;46.082;18.234;2023-04-06T00:13:58;99788.97;;;3.86;42.77
78584;BME280;67880;46.082;18.234;2023-04-06T00:14:29;99801.31;;;3.87;42.47
78584;BME280;67880;46.082;18.234;2023-04-06T00:15:00;99793.34;;;3.87;41.95
78584;BME280;67880;46.082;18.234;2023-04-06T00:15:31;99797.81;;;3.87;42.84
78584;BME280;67880;46.082;18.234;2023-04-06T00:16:02;99792.84;;;3.82;42.43
78584;BME280;67880;46.082;18.234;2023-04-06T00:16:35;99784.16;;;3.80;42.82
78584;BME280;67880;46.082;18.234;2023-04-06T00:17:06;99795.50;;;3.82;42.96
78584;BME280;67880;46.082;18.234;2023-04-06T00:17:36;99794.66;;;3.82;42.97
78584;BME280;67880;46.082;18.234;2023-04-06T00:18:07;99794.75;;;3.80;42.75
78584;BME280;67880;46.082;18.234;2023-04-06T00:18:38;99792.44;;;3.75;43.17
78584;BME280;67880;46.082;18.234;2023-04-06T00:19:09;99785.31;;;3.76;42.25
78584;BME280;67880;46.082;18.234;2023-04-06T00:19:40;99791.22;;;3.79;42.94
78584;BME280;67880;46.082;18.234;2023-04-06T00:20:11;99782.78;;;3.74;42.86
78584;BME280;67880;46.082;18.234;2023-04-06T00:20:42;99796.53;;;3.79;42.64
78584;BME280;67880;46.082;18.234;2023-04-06T00:21:13;99786.88;;;3.78;42.90
78584;BME280;67880;46.082;18.234;2023-04-06T00:21:44;99788.81;;;3.76;42.90
78584;BME280;67880;46.082;18.234;2023-04-06T00:22:15;99788.69;;;3.78;42.18
78584;BME280;67880;46.082;18.234;2023-04-06T00:22:46;99786.03;;;3.78;42.80
78584;BME280;67880;46.082;18.234;2023-04-06T00:23:17;99786.03;;;3.78;42.92
78584;BME280;67880;46.082;18.234;2023-04-06T00:23:48;99789.47;;;3.80;42.82
78584;BME280;67880;46.082;18.234;2023-04-06T00:24:19;99790.31;;;3.80;43.18
78584;BME280;67880;46.082;18.234;2023-04-06T00:24:49;99788.56;;;3.79;43.08
78584;BME280;67880;46.082;18.234;2023-04-06T00:25:20;99784.81;;;3.71;43.20
78584;BME280;67880;46.082;18.234;2023-04-06T00:25:51;99786.63;;;3.70;43.01
78584;BME280;67880;46.082;18.234;2023-04-06T00:26:21;99783.72;;;3.73;43.76
78584;BME280;67880;46.082;18.234;2023-04-06T00:27:07;99781.19;;;3.72;42.83
78584;BME280;67880;46.082;18.234;2023-04-06T00:27:38;99783.00;;;3.71;43.06
78584;BME280;67880;46.082;18.234;2023-04-06T00:28:09;99781.94;;;3.74;42.94
78584;BME280;67880;46.082;18.234;2023-04-06T00:28:39;99776.84;;;3.71;42.72
78584;BME280;67880;46.082;18.234;2023-04-06T00:29:10;99781.44;;;3.69;42.86
78584;BME280;67880;46.082;18.234;2023-04-06T00:29:41;99772.38;;;3.71;43.52
78584;BME280;67880;46.082;18.234;2023-04-06T00:30:11;99783.97;;;3.70;43.28
78584;BME280;67880;46.082;18.234;2023-04-06T00:30:42;99767.50;;;3.65;42.86
78584;BME280;67880;46.082;18.234;2023-04-06T00:31:13;99776.44;;;3.64;43.63
78584;BME280;67880;46.082;18.234;2023-04-06T00:31:44;99776.22;;;3.67;43.26
78584;BME280;67880;46.082;18.234;2023-04-06T00:32:15;99778.97;;;3.66;42.67
78584;BME280;67880;46.082;18.234;2023-04-06T00:32:45;99784.19;;;3.67;43.27
78584;BME280;67880;46.082;18.234;2023-04-06T00:33:16;99772.69;;;3.67;43.17
78584;BME280;67880;46.082;18.234;2023-04-06T00:33:48;99777.41;;;3.63;43.07
78584;BME280;67880;46.082;18.234;2023-04-06T00:34:18;99778.66;;;3.70;43.24
78584;BME280;67880;46.082;18.234;2023-04-06T00:34:49;99777.94;;;3.68;42.46
78584;BME280;67880;46.082;18.234;2023-04-06T00:35:20;99770.69;;;3.70;42.94
78584;BME280;67880;46.082;18.234;2023-04-06T00:35:51;99773.56;;;3.67;43.20
78584;BME280;67880;46.082;18.234;2023-04-06T00:36:21;99772.22;;;3.62;42.49
78584;BME280;67880;46.082;18.234;2023-04-06T00:36:52;99767.50;;;3.65;42.59
78584;BME280;67880;46.082;18.234;2023-04-06T00:37:22;99775.47;;;3.65;43.31
78584;BME280;67880;46.082;18.234;2023-04-06T00:37:53;99777.94;;;3.68;42.84
78584;BME280;67880;46.082;18.234;2023-04-06T00:38:24;99774.63;;;3.65;43.10
78584;BME280;67880;46.082;18.234;2023-04-06T00:38:54;99770.28;;;3.64;43.14
78584;BME280;67880;46.082;18.234;2023-04-06T00:39:25;99772.22;;;3.62;42.78
78584;BME280;67880;46.082;18.234;2023-04-06T00:39:56;99782.00;;;3.61;43.63
78584;BME280;67880;46.082;18.234;2023-04-06T00:40:26;99777.53;;;3.62;43.58
78584;BME280;67880;46.082;18.234;2023-04-06T00:40:58;99774.75;;;3.63;43.66
78584;BME280;67880;46.082;18.234;2023-04-06T00:41:29;99774.75;;;3.63;43.10
78584;BME280;67880;46.082;18.234;2023-04-06T00:42:11;99779.09;;;3.64;43.57
78584;BME280;67880;46.082;18.234;2023-04-06T00:42:45;99772.81;;;3.65;43.30
78584;BME280;67880;46.082;18.234;2023-04-06T00:43:15;99771.47;;;3.60;43.51
78584;BME280;67880;46.082;18.234;2023-04-06T00:43:46;99775.84;;;3.61;43.55
78584;BME280;67880;46.082;18.234;2023-04-06T00:44:17;99769.66;;;3.60;43.64
78584;BME280;67880;46.082;18.234;2023-04-06T00:44:48;99760.00;;;3.59;43.78
78584;BME280;67880;46.082;18.234;2023-04-06T00:45:19;99765.44;;;3.58;43.83
78584;BME280;67880;46.082;18.234;2023-04-06T00:45:49;99768.31;;;3.55;43.92
78584;BME280;67880;46.082;18.234;2023-04-06T00:46:20;99757.78;;;3.53;44.24
78584;BME280;67880;46.082;18.234;2023-04-06T00:46:51;99762.78;;;3.58;44.05
78584;BME280;67880;46.082;18.234;2023-04-06T00:47:22;99768.19;;;3.56;43.74
78584;BME280;67880;46.082;18.234;2023-04-06T00:47:53;99762.38;;;3.51;44.28
78584;BME280;67880;46.082;18.234;2023-04-06T00:48:24;99771.81;;;3.55;43.82
78584;BME280;67880;46.082;18.234;2023-04-06T00:48:54;99760.25;;;3.56;43.67
78584;BME280;67880;46.082;18.234;2023-04-06T00:49:25;99767.34;;;3.56;43.76
78584;BME280;67880;46.082;18.234;2023-04-06T00:49:56;99768.19;;;3.56;43.50
78584;BME280;67880;46.082;18.234;2023-04-06T00:50:27;99768.31;;;3.55;43.51
78584;BME280;67880;46.082;18.234;2023-04-06T00:50:58;99768.81;;;3.60;44.05
78584;BME280;67880;46.082;18.234;2023-04-06T00:51:29;99771.19;;;3.51;43.89
78584;BME280;67880;46.082;18.234;2023-04-06T00:52:00;99758.63;;;3.53;43.64
78584;BME280;67880;46.082;18.234;2023-04-06T00:52:31;99762.88;;;3.56;43.44
78584;BME280;67880;46.082;18.234;2023-04-06T00:53:02;99760.34;;;3.55;43.50
78584;BME280;67880;46.082;18.234;2023-04-06T00:53:45;99763.94;;;3.53;43.67
78584;BME280;67880;46.082;18.234;2023-04-06T00:54:16;99762.88;;;3.56;43.33
78584;BME280;67880;46.082;18.234;2023-04-06T00:54:47;99755.13;;;3.53;43.11
78584;BME280;67880;46.082;18.234;2023-04-06T00:55:17;99768.41;;;3.53;43.53
78584;BME280;67880;46.082;18.234;2023-04-06T00:55:48;99756.09;;;3.52;43.18
78584;BME280;67880;46.082;18.234;2023-04-06T00:56:19;99759.47;;;3.54;43.49
78584;BME280;67880;46.082;18.234;2023-04-06T00:56:50;99756.34;;;3.49;43.71
78584;BME280;67880;46.082;18.234;2023-04-06T00:57:21;99746.56;;;3.49;43.82
78584;BME280;67880;46.082;18.234;2023-04-06T00:57:51;99759.59;;;3.52;43.90
78584;BME280;67880;46.082;18.234;2023-04-06T00:58:23;99758.03;;;3.50;43.42
78584;BME280;67880;46.082;18.234;2023-04-06T00:58:54;99762.25;;;3.52;43.32
78584;BME280;67880;46.082;18.234;2023-04-06T00:59:27;99756.09;;;3.52;43.94
78584;BME280;67880;46.082;18.234;2023-04-06T00:59:58;99750.91;;;3.50;43.23
78584;BME280;67880;46.082;18.234;2023-04-06T01:00:29;99759.00;;;3.49;44.08
78584;BME280;67880;46.082;18.234;2023-04-06T01:01:00;99752.72;;;3.50;43.74
78584;BME280;67880;46.082;18.234;2023-04-06T01:01:31;99762.63;;;3.48;43.75
78584;BME280;67880;46.082;18.234;2023-04-06T01:02:02;99758.25;;;3.47;44.05
78584;BME280;67880;46.082;18.234;2023-04-06T01:02:33;99752.19;;;3.45;43.65
78584;BME280;67880;46.082;18.234;2023-04-06T01:03:04;99747.63;;;3.47;43.54
78584;BME280;67880;46.082;18.234;2023-04-06T01:03:36;99746.78;;;3.46;42.80
78584;BME280;67880;46.082;18.234;2023-04-06T01:04:07;99752.72;;;3.50;43.33
78584;BME280;67880;46.082;18.234;2023-04-06T01:04:38;99748.47;;;3.47;42.98
78584;BME280;67880;46.082;18.234;2023-04-06T01:05:09;99748.72;;;3.44;43.80
78584;BME280;67880;46.082;18.234;2023-04-06T01:05:39;99745.09;;;3.45;42.73
78584;BME280;67880;46.082;18.234;2023-04-06T01:06:10;99747.53;;;3.48;42.82
78584;BME280;67880;46.082;18.234;2023-04-06T01:06:41;99750.06;;;3.50;42.89
78584;BME280;67880;46.082;18.234;2023-04-06T01:07:12;99732.34;;;3.50;43.53
78584;BME280;67880;46.082;18.234;2023-04-06T01:07:42;99744.03;;;3.48;43.18
78584;BME280;67880;46.082;18.234;2023-04-06T01:08:13;99756.34;;;3.49;43.31
78584;BME280;67880;46.082;18.234;2023-04-06T01:08:44;99749.56;;;3.45;43.44
78584;BME280;67880;46.082;18.234;2023-04-06T01:09:16;99740.88;;;3.43;43.37
78584;BME280;67880;46.082;18.234;2023-04-06T01:09:46;99738.22;;;3.43;42.78
78584;BME280;67880;46.082;18.234;2023-04-06T01:10:27;99747.03;;;3.43;43.59
78584;BME280;67880;46.082;18.234;2023-04-06T01:11:13;99745.94;;;3.46;43.36
78584;BME280;67880;46.082;18.234;2023-04-06T01:11:44;99744.38;;;3.43;43.33
78584;BME280;67880;46.082;18.234;2023-04-06T01:12:14;99745.09;;;3.45;43.03
78584;BME280;67880;46.082;18.234;2023-04-06T01:12:45;99738.94;;;3.45;42.69
78584;BME280;67880;46.082;18.234;2023-04-06T01:13:16;99747.88;;;3.44;43.53
78584;BME280;67880;46.082;18.234;2023-04-06T01:14:05;99743.41;;;3.44;42.74
78584;BME280;67880;46.082;18.234;2023-04-06T01:14:36;99747.88;;;3.44;43.01
78584;BME280;67880;46.082;18.234;2023-04-06T01:15:07;99739.91;;;3.44;42.97
78584;BME280;67880;46.082;18.234;2023-04-06T01:15:38;99744.13;;;3.46;43.39
78584;BME280;67880;46.082;18.234;2023-04-06T01:16:09;99749.66;;;3.43;42.81
78584;BME280;67880;46.082;18.234;2023-04-06T01:16:41;99737.44;;;3.41;43.31
78584;BME280;67880;46.082;18.234;2023-04-06T01:17:12;99739.91;;;3.44;42.89
78584;BME280;67880;46.082;18.234;2023-04-06T01:17:42;99734.81;;;3.41;42.53
78584;BME280;67880;46.082;18.234;2023-04-06T01:18:13;99733.88;;;3.42;42.75
78584;BME280;67880;46.082;18.234;2023-04-06T01:18:44;99742.03;;;3.39;43.03
78584;BME280;67880;46.082;18.234;2023-04-06T01:19:14;99732.50;;;3.36;43.45
78584;BME280;67880;46.082;18.234;2023-04-06T01:19:45;99731.41;;;3.39;43.01
78584;BME280;67880;46.082;18.234;2023-04-06T01:20:16;99734.91;;;3.39;42.78
78584;BME280;67880;46.082;18.234;2023-04-06T01:20:46;99741.19;;;3.38;42.96
78584;BME280;67880;46.082;18.234;2023-04-06T01:21:17;99741.19;;;3.38;43.43
78584;BME280;67880;46.082;18.234;2023-04-06T01:21:48;99729.00;;;3.36;42.94
78584;BME280;67880;46.082;18.234;2023-04-06T01:22:19;99732.28;;;3.39;43.16
78584;BME280;67880;46.082;18.234;2023-04-06T01:22:50;99735.16;;;3.36;43.44
78584;BME280;67880;46.082;18.234;2023-04-06T01:23:21;99723.69;;;3.36;43.09
78584;BME280;67880;46.082;18.234;2023-04-06T01:23:52;99740.47;;;3.36;43.44
78584;BME280;67880;46.082;18.234;2023-04-06T01:24:22;99730.69;;;3.37;43.04
78584;BME280;67880;46.082;18.234;2023-04-06T01:24:53;99734.41;;;3.34;43.56
78584;BME280;67880;46.082;18.234;2023-04-06T01:25:24;99731.97;;;3.31;43.88
78584;BME280;67880;46.082;18.234;2023-04-06T01:25:54;99728.38;;;3.32;43.41
78584;BME280;67880;46.082;18.234;2023-04-06T01:26:25;99733.47;;;3.35;43.56
78584;BME280;67880;46.082;18.234;2023-04-06T01:26:57;99732.72;;;3.33;43.56
78584;BME280;67880;46.082;18.234;2023-04-06T01:27:27;99723.91;;;3.33;44.25
78584;BME280;67880;46.082;18.234;2023-04-06T01:28:11;99724.63;;;3.35;44.10
78584;BME280;67880;46.082;18.234;2023-04-06T01:28:42;99734.63;;;3.31;44.13
78584;BME280;67880;46.082;18.234;2023-04-06T01:29:13;99741.03;;;3.29;44.38
78584;BME280;67880;46.082;18.234;2023-04-06T01:29:43;99729.44;;;3.30;43.96
78584;BME280;67880;46.082;18.234;2023-04-06T01:30:14;99727.75;;;3.29;43.76
78584;BME280;67880;46.082;18.234;2023-04-06T01:30:46;99730.19;;;3.32;43.42
78584;BME280;67880;46.082;18.234;2023-04-06T01:31:17;99720.66;;;3.29;43.97
78584;BME280;67880;46.082;18.234;2023-04-06T01:31:48;99723.31;;;3.29;44.17
78584;BME280;67880;46.082;18.234;2023-04-06T01:32:19;99718.94;;;3.28;44.45
78584;BME280;67880;46.082;18.234;2023-04-06T01:32:49;99721.59;;;3.28;44.49
78584;BME280;67880;46.082;18.234;2023-04-06T01:33:20;99715.44;;;3.28;43.94
78584;BME280;67880;46.082;18.234;2023-04-06T01:33:51;99708.31;;;3.28;44.14
78584;BME280;67880;46.082;18.234;2023-04-06T01:34:21;99714.94;;;3.22;44.12
78584;BME280;67880;46.082;18.234;2023-04-06T01:34:52;99714.94;;;3.22;43.63
78584;BME280;67880;46.082;18.234;2023-04-06T01:35:23;99716.63;;;3.23;43.71
78584;BME280;67880;46.082;18.234;2023-04-06T01:35:54;99723.63;;;3.24;44.05
78584;BME280;67880;46.082;18.234;2023-04-06T01:36:25;99719.03;;;3.26;43.98
78584;BME280;67880;46.082;18.234;2023-04-06T01:36:55;99719.03;;;3.26;44.07
78584;BME280;67880;46.082;18.234;2023-04-06T01:37:26;99719.88;;;3.27;43.65
78584;BME280;67880;46.082;18.234;2023-04-06T01:37:57;99722.53;;;3.27;43.87
78584;BME280;67880;46.082;18.234;2023-04-06T01:38:27;99709.28;;;3.27;43.94
78584;BME280;67880;46.082;18.234;2023-04-06T01:38:58;99718.09;;;3.28;43.88
78584;BME280;67880;46.082;18.234;2023-04-06T01:39:30;99719.28;;;3.23;44.19
78584;BME280;67880;46.082;18.234;2023-04-06T01:40:00;99727.13;;;3.25;44.24
78584;BME280;67880;46.082;18.234;2023-04-06T01:40:31;99722.03;;;3.22;43.86
78584;BME280;67880;46.082;18.234;2023-04-06T01:41:02;99722.66;;;3.25;43.49
78584;BME280;67880;46.082;18.234;2023-04-06T01:41:33;99717.34;;;3.25;44.17
78584;BME280;67880;46.082;18.234;2023-04-06T01:42:03;99729.66;;;3.26;43.97
78584;BME280;67880;46.082;18.234;2023-04-06T01:42:34;99720.00;;;3.25;43.60
78584;BME280;67880;46.082;18.234;2023-04-06T01:43:05;99720.84;;;3.26;44.30
78584;BME280;67880;46.082;18.234;2023-04-06T01:43:37;99718.44;;;3.23;43.69
78584;BME280;67880;46.082;18.234;2023-04-06T01:44:08;99718.31;;;3.24;44.01
78584;BME280;67880;46.082;18.234;2023-04-06T01:44:38;99699.75;;;3.24;44.39
78584;BME280;67880;46.082;18.234;2023-04-06T01:45:09;99720.25;;;3.22;43.82
78584;BME280;67880;46.082;18.234;2023-04-06T01:45:40;99693.59;;;3.24;43.44
78584;BME280;67880;46.082;18.234;2023-04-06T01:46:11;99714.53;;;3.16;44.19
78584;BME280;67880;46.082;18.234;2023-04-06T01:46:53;99707.19;;;3.19;43.60
78584;BME280;67880;46.082;18.234;2023-04-06T01:47:24;99714.31;;;3.19;44.05
78584;BME280;67880;46.082;18.234;2023-04-06T01:47:54;99708.88;;;3.20;43.60
78584;BME280;67880;46.082;18.234;2023-04-06T01:48:26;99700.81;;;3.22;44.13
78584;BME280;67880;46.082;18.234;2023-04-06T01:48:57;99714.06;;;3.22;44.17
78584;BME280;67880;46.082;18.234;2023-04-06T01:49:28;99708.88;;;3.20;43.43
78584;BME280;67880;46.082;18.234;2023-04-06T01:49:58;99713.22;;;3.21;44.20
78584;BME280;67880;46.082;18.234;2023-04-06T01:50:29;99710.81;;;3.18;43.79
78584;BME280;67880;46.082;18.234;2023-04-06T01:51:00;99710.56;;;3.21;44.52
78584;BME280;67880;46.082;18.234;2023-04-06T01:51:30;99713.13;;;3.23;43.67
78584;BME280;67880;46.082;18.234;2023-04-06T01:52:01;99713.00;;;3.24;43.69
78584;BME280;67880;46.082;18.234;2023-04-06T01:52:35;99713.97;;;3.23;43.95
78584;BME280;67880;46.082;18.234;2023-04-06T01:53:05;99709.53;;;3.24;44.02
78584;BME280;67880;46.082;18.234;2023-04-06T01:53:36;99716.63;;;3.23;44.18
78584;BME280;67880;46.082;18.234;2023-04-06T01:54:07;99711.75;;;3.17;44.13
78584;BME280;67880;46.082;18.234;2023-04-06T01:54:38;99714.06;;;3.22;44.04
78584;BME280;67880;46.082;18.234;2023-04-06T01:55:08;99700.31;;;3.17;44.31
78584;BME280;67880;46.082;18.234;2023-04-06T01:55:39;99708.16;;;3.18;44.49
78584;BME280;67880;46.082;18.234;2023-04-06T01:56:09;99708.16;;;3.18;44.36
78584;BME280;67880;46.082;18.234;2023-04-06T01:56:40;99716.97;;;3.19;44.11
78584;BME280;67880;46.082;18.234;2023-04-06T01:57:11;99709.97;;;3.18;44.87
78584;BME280;67880;46.082;18.234;2023-04-06T01:57:42;99706.34;;;3.19;44.41
78584;BME280;67880;46.082;18.234;2023-04-06T01:58:13;99704.84;;;3.15;44.79
78584;BME280;67880;46.082;18.234;2023-04-06T01:58:44;99707.63;;;3.13;44.64
78584;BME280;67880;46.082;18.234;2023-04-06T01:59:14;99714.00;;;3.11;45.30
78584;BME280;67880;46.082;18.234;2023-04-06T01:59:45;99705.69;;;3.15;44.97
78584;BME280;67880;46.082;18.234;2023-04-06T02:00:16;99709.31;;;3.14;44.47
78584;BME280;67880;46.082;18.234;2023-04-06T02:00:47;99704.84;;;3.15;44.60
78584;BME280;67880;46.082;18.234;2023-04-06T02:01:17;99700.41;;;3.15;44.81
78584;BME280;67880;46.082;18.234;2023-04-06T02:01:48;99711.88;;;3.16;44.72
78584;BME280;67880;46.082;18.234;2023-04-06T02:02:19;99701.59;;;3.11;45.07
78584;BME280;67880;46.082;18.234;2023-04-06T02:02:49;99698.72;;;3.14;44.66
78584;BME280;67880;46.082;18.234;2023-04-06T02:03:20;99699.69;;;3.13;44.98
78584;BME280;67880;46.082;18.234;2023-04-06T02:03:51;99698.09;;;3.11;44.95
78584;BME280;67880;46.082;18.234;2023-04-06T02:04:22;99710.16;;;3.15;44.89
78584;BME280;67880;46.082;18.234;2023-04-06T02:05:08;99697.25;;;3.10;45.11
78584;BME280;67880;46.082;18.234;2023-04-06T02:05:39;99704.25;;;3.11;45.15
78584;BME280;67880;46.082;18.234;2023-04-06T02:06:10;99691.19;;;3.08;44.47
78584;BME280;67880;46.082;18.234;2023-04-06T02:06:41;99708.72;;;3.11;45.12
78584;BME280;67880;46.082;18.234;2023-04-06T02:07:11;99696.50;;;3.08;44.32
78584;BME280;67880;46.082;18.234;2023-04-06T02:07:42;99707.09;;;3.08;44.30
78584;BME280;67880;46.082;18.234;2023-04-06T02:08:13;99698.22;;;3.09;44.53
78584;BME280;67880;46.082;18.234;2023-04-06T02:08:43;99698.44;;;3.06;45.10
78584;BME280;67880;46.082;18.234;2023-04-06T02:09:14;99704.47;;;3.08;45.25
78584;BME280;67880;46.082;18.234;2023-04-06T02:09:45;99703.41;;;3.11;44.11
78584;BME280;67880;46.082;18.234;2023-04-06T02:10:16;99700.34;;;3.04;44.08
78584;BME280;67880;46.082;18.234;2023-04-06T02:10:46;99690.34;;;3.08;44.24
78584;BME280;67880;46.082;18.234;2023-04-06T02:11:17;99694.09;;;3.05;44.66
78584;BME280;67880;46.082;18.234;2023-04-06T02:11:48;99696.00;;;3.03;45.01
78584;BME280;67880;46.082;18.234;2023-04-06T02:12:18;99700.88;;;3.09;44.92
78584;BME280;67880;46.082;18.234;2023-04-06T02:12:49;99693.13;;;3.06;44.35
78584;BME280;67880;46.082;18.234;2023-04-06T02:13:19;99695.91;;;3.05;45.07
78584;BME280;67880;46.082;18.234;2023-04-06T02:13:50;99696.00;;;3.03;44.38
78584;BME280;67880;46.082;18.234;2023-04-06T02:14:24;99703.63;;;3.08;44.58
78584;BME280;67880;46.082;18.234;2023-04-06T02:14:55;99699.50;;;3.04;44.76
78584;BME280;67880;46.082;18.234;2023-04-06T02:15:27;99702.78;;;3.07;43.88
78584;BME280;67880;46.082;18.234;2023-04-06T02:15:57;99694.28;;;3.02;44.26
78584;BME280;67880;46.082;18.234;2023-04-06T02:16:28;99703.00;;;3.04;44.13
78584;BME280;67880;46.082;18.234;2023-04-06T02:16:58;99692.59;;;3.01;44.78
78584;BME280;67880;46.082;18.234;2023-04-06T02:17:29;99691.63;;;3.02;44.51
78584;BME280;67880;46.082;18.234;2023-04-06T02:18:00;99694.66;;;2.97;44.38
78584;BME280;67880;46.082;18.234;2023-04-06T02:18:31;99688.13;;;3.02;44.75
78584;BME280;67880;46.082;18.234;2023-04-06T02:20:12;99704.06;;;3.02;43.99
78584;BME280;67880;46.082;18.234;2023-04-06T02:20:44;99707.66;;;3.01;44.56
78584;BME280;67880;46.082;18.234;2023-04-06T02:21:16;99698.88;;;3.00;44.95
78584;BME280;67880;46.082;18.234;2023-04-06T02:21:50;99701.53;;;3.00;44.22
78584;BME280;67880;46.082;18.234;2023-04-06T02:22:21;99689.22;;;2.99;45.01
78584;BME280;67880;46.082;18.234;2023-04-06T02:22:51;99699.00;;;2.98;44.76
78584;BME280;67880;46.082;18.234;2023-04-06T02:23:22;99697.19;;;2.99;45.02
78584;BME280;67880;46.082;18.234;2023-04-06T02:23:53;99704.28;;;2.98;45.36
78584;BME280;67880;46.082;18.234;2023-04-06T02:24:24;99700.91;;;2.96;44.84
78584;BME280;67880;46.082;18.234;2023-04-06T02:24:54;99703.56;;;2.96;45.15
78584;BME280;67880;46.082;18.234;2023-04-06T02:25:25;99701.97;;;2.94;45.17
78584;BME280;67880;46.082;18.234;2023-04-06T02:25:56;99690.63;;;2.92;45.41
78584;BME280;67880;46.082;18.234;2023-04-06T02:26:27;99695.81;;;2.93;45.18
78584;BME280;67880;46.082;18.234;2023-04-06T02:26:58;99694.97;;;2.93;45.35
78584;BME280;67880;46.082;18.234;2023-04-06T02:28:18;99701.84;;;2.95;45.27
78584;BME280;67880;46.082;18.234;2023-04-06T02:28:48;99704.59;;;2.94;45.63
78584;BME280;67880;46.082;18.234;2023-04-06T02:29:19;99695.09;;;2.91;45.86
78584;BME280;67880;46.082;18.234;2023-04-06T02:29:50;99706.72;;;2.89;45.84
78584;BME280;67880;46.082;18.234;2023-04-06T02:30:21;99694.31;;;2.89;45.26
78584;BME280;67880;46.082;18.234;2023-04-06T02:30:52;99700.50;;;2.90;45.50
78584;BME280;67880;46.082;18.234;2023-04-06T02:31:22;99682.88;;;2.89;45.42
78584;BME280;67880;46.082;18.234;2023-04-06T02:31:53;99698.16;;;2.85;45.64
78584;BME280;67880;46.082;18.234;2023-04-06T02:32:24;99690.09;;;2.87;45.66
78584;BME280;67880;46.082;18.234;2023-04-06T02:32:55;99694.69;;;2.85;45.05
78584;BME280;67880;46.082;18.234;2023-04-06T02:33:25;99700.59;;;2.88;45.00
78584;BME280;67880;46.082;18.234;2023-04-06T02:33:56;99695.63;;;2.84;45.52
78584;BME280;67880;46.082;18.234;2023-04-06T02:34:27;99694.03;;;2.81;45.77
78584;BME280;67880;46.082;18.234;2023-04-06T02:34:57;99692.34;;;2.80;46.18
78584;BME280;67880;46.082;18.234;2023-04-06T02:35:29;99690.78;;;2.78;46.13
78584;BME280;67880;46.082;18.234;2023-04-06T02:36:00;99687.88;;;2.81;45.72
78584;BME280;67880;46.082;18.234;2023-04-06T02:36:31;99695.22;;;2.77;45.87
78584;BME280;67880;46.082;18.234;2023-04-06T02:37:01;99687.34;;;2.76;46.15
78584;BME280;67880;46.082;18.234;2023-04-06T02:37:32;99700.63;;;2.76;46.59
78584;BME280;67880;46.082;18.234;2023-04-06T02:38:03;99693.50;;;2.76;46.00
78584;BME280;67880;46.082;18.234;2023-04-06T02:38:33;99686.50;;;2.75;45.77
78584;BME280;67880;46.082;18.234;2023-04-06T02:39:04;99699.66;;;2.77;46.29
78584;BME280;67880;46.082;18.234;2023-04-06T02:39:35;99692.66;;;2.76;45.47
78584;BME280;67880;46.082;18.234;2023-04-06T02:40:06;99699.16;;;2.71;45.52
78584;BME280;67880;46.082;18.234;2023-04-06T02:40:52;99689.50;;;2.70;46.21
78584;BME280;67880;46.082;18.234;2023-04-06T02:41:23;99689.28;;;2.74;45.81
78584;BME280;67880;46.082;18.234;2023-04-06T02:41:53;99695.44;;;2.74;46.24
78584;BME280;67880;46.082;18.234;2023-04-06T02:42:25;99693.75;;;2.73;46.76
78584;BME280;67880;46.082;18.234;2023-04-06T02:42:56;99694.16;;;2.67;45.98
78584;BME280;67880;46.082;18.234;2023-04-06T02:43:26;99697.66;;;2.67;46.16
78584;BME280;67880;46.082;18.234;2023-04-06T02:43:57;99694.91;;;2.69;46.68
78584;BME280;67880;46.082;18.234;2023-04-06T02:44:28;99694.81;;;2.70;46.57
78584;BME280;67880;46.082;18.234;2023-04-06T02:44:58;99694.06;;;2.68;46.10
78584;BME280;67880;46.082;18.234;2023-04-06T02:45:29;99692.38;;;2.67;46.01
78584;BME280;67880;46.082;18.234;2023-04-06T02:46:00;99692.16;;;2.70;46.19
78584;BME280;67880;46.082;18.234;2023-04-06T02:46:30;99687.19;;;2.66;46.79
78584;BME280;67880;46.082;18.234;2023-04-06T02:47:01;99689.72;;;2.67;46.18
78584;BME280;67880;46.082;18.234;2023-04-06T02:47:32;99697.03;;;2.64;46.09
78584;BME280;67880;46.082;18.234;2023-04-06T02:48:03;99695.13;;;2.66;47.01